Gas Ray — V7YB4 — position and weather

sailwx.info

Track history (hours):
 
Tides and Currents Weather Stations Pressure Air Temp Water Temp Dewpoint Dewpoint Depression Visibility Wind Speed Wind Dir Waves Ship Positions

Gas Ray

Last reported at 2018-Apr-23 03:03 UTC. Time now 2018-Apr-23 05:12 UTC.
Position N 28°40' W 013°11'.

Length 174 m; draft 7.2 m.

Type: Ship (hazmat cat C). MMSI: 538007171.

Date/timePositionNaut miles runAvg speedWind from/ knotsBaromVisibWave heightAir tempDewpointWater temp
2018-Apr-23 03:03N 28°40' W 013°11'113.0
2018-Apr-23 03:00N 28°40' W 013°12'  
2018-Apr-18 23:24N 09°23' W 019°32'713.6
2018-Apr-18 22:55N 09°18' W 019°28'613.3
2018-Apr-18 22:27N 09°13' W 019°24'613.2
2018-Apr-18 22:00N 09°08' W 019°20'5113.5
2018-Apr-18 18:12N 08°28' W 018°47'313.6
2018-Apr-18 18:01N 08°26' W 018°46'713.4
2018-Apr-18 17:30N 08°21' W 018°42'713.3
2018-Apr-18 17:00N 08°15' W 018°38'713.7
2018-Apr-18 16:30N 08°10' W 018°34'813.4
2018-Apr-18 15:54N 08°03' W 018°29'513.1
2018-Apr-18 15:30N 07°60' W 018°25'713.1
2018-Apr-18 14:59N 07°55' W 018°20'713.3
2018-Apr-18 14:27N 07°49' W 018°16'613.3
2018-Apr-18 14:00N 07°44' W 018°12'713.1
2018-Apr-18 13:29N 07°39' W 018°08'613.0
2018-Apr-18 13:00N 07°34' W 018°04'613.0
2018-Apr-18 12:31N 07°29' W 017°60'1413.3
2018-Apr-18 11:28N 07°19' W 017°51'613.1
2018-Apr-18 11:00N 07°14' W 017°47'713.3
2018-Apr-18 10:30N 07°09' W 017°43'713.5
2018-Apr-18 10:00N 07°04' W 017°39'6 9.4
2018-Apr-18 09:25N 06°59' W 017°35'16 6.4
2018-Apr-18 06:56N 06°47' W 017°26'3 8.0
2018-Apr-18 06:30N 06°44' W 017°23'612.1
2018-Apr-18 06:00N 06°40' W 017°19'713.4
2018-Apr-18 05:28N 06°34' W 017°14'613.5
2018-Apr-18 05:00N 06°29' W 017°10'713.6
2018-Apr-18 04:30N 06°24' W 017°06'713.4
2018-Apr-18 04:00N 06°19' W 017°02'613.0
2018-Apr-18 03:30N 06°14' W 016°58'713.1
2018-Apr-18 03:01N 06°09' W 016°54'713.1
2018-Apr-18 02:30N 06°03' W 016°50'713.0
2018-Apr-18 01:58N 05°58' W 016°45'1013.0
2018-Apr-18 01:10N 05°50' W 016°39'813.1
2018-Apr-18 00:35N 05°44' W 016°34'113.1
2018-Apr-18 00:29N 05°43' W 016°33'1013.2
2018-Apr-17 23:43N 05°35' W 016°26'313.0
2018-Apr-17 23:30N 05°33' W 016°25'713.1
2018-Apr-17 22:59N 05°28' W 016°20'713.1
2018-Apr-17 22:27N 05°22' W 016°16'1512.8
2018-Apr-17 21:16N 05°09' W 016°08'312.6
2018-Apr-17 21:00N 05°06' W 016°07'1810.5
2018-Apr-17 19:18N 04°54' W 015°53'  
Track history (hours):
 
Tides and Currents Weather Stations Pressure Air Temp Water Temp Dewpoint Dewpoint Depression Visibility Wind Speed Wind Dir Waves Ship Positions

Gas Ray

Last reported at 2018-Apr-23 03:03 UTC. Time now 2018-Apr-23 05:12 UTC.
Position N 28°40' W 013°11'.

Length 174 m; draft 7.2 m.

Type: Ship (hazmat cat C). MMSI: 538007171.

Date/timePositionNaut miles runAvg speedWind from/ knotsBaromVisibWave heightAir tempDewpointWater temp
2018-Apr-23 03:03N 28°40' W 013°11'113.0
2018-Apr-23 03:00N 28°40' W 013°12'  
2018-Apr-18 23:24N 09°23' W 019°32'713.6
2018-Apr-18 22:55N 09°18' W 019°28'613.3
2018-Apr-18 22:27N 09°13' W 019°24'613.2
2018-Apr-18 22:00N 09°08' W 019°20'5113.5
2018-Apr-18 18:12N 08°28' W 018°47'313.6
2018-Apr-18 18:01N 08°26' W 018°46'713.4
2018-Apr-18 17:30N 08°21' W 018°42'713.3
2018-Apr-18 17:00N 08°15' W 018°38'713.7
2018-Apr-18 16:30N 08°10' W 018°34'813.4
2018-Apr-18 15:54N 08°03' W 018°29'513.1
2018-Apr-18 15:30N 07°60' W 018°25'713.1
2018-Apr-18 14:59N 07°55' W 018°20'713.3
2018-Apr-18 14:27N 07°49' W 018°16'613.3
2018-Apr-18 14:00N 07°44' W 018°12'713.1
2018-Apr-18 13:29N 07°39' W 018°08'613.0
2018-Apr-18 13:00N 07°34' W 018°04'613.0
2018-Apr-18 12:31N 07°29' W 017°60'1413.3
2018-Apr-18 11:28N 07°19' W 017°51'613.1
2018-Apr-18 11:00N 07°14' W 017°47'713.3
2018-Apr-18 10:30N 07°09' W 017°43'713.5
2018-Apr-18 10:00N 07°04' W 017°39'6 9.4
2018-Apr-18 09:25N 06°59' W 017°35'16 6.4
2018-Apr-18 06:56N 06°47' W 017°26'3 8.0
2018-Apr-18 06:30N 06°44' W 017°23'612.1
2018-Apr-18 06:00N 06°40' W 017°19'713.4
2018-Apr-18 05:28N 06°34' W 017°14'613.5
2018-Apr-18 05:00N 06°29' W 017°10'713.6
2018-Apr-18 04:30N 06°24' W 017°06'713.4
2018-Apr-18 04:00N 06°19' W 017°02'613.0
2018-Apr-18 03:30N 06°14' W 016°58'713.1
2018-Apr-18 03:01N 06°09' W 016°54'713.1
2018-Apr-18 02:30N 06°03' W 016°50'713.0
2018-Apr-18 01:58N 05°58' W 016°45'1013.0
2018-Apr-18 01:10N 05°50' W 016°39'813.1
2018-Apr-18 00:35N 05°44' W 016°34'113.1
2018-Apr-18 00:29N 05°43' W 016°33'1013.2
2018-Apr-17 23:43N 05°35' W 016°26'313.0
2018-Apr-17 23:30N 05°33' W 016°25'713.1
2018-Apr-17 22:59N 05°28' W 016°20'713.1
2018-Apr-17 22:27N 05°22' W 016°16'1512.8
2018-Apr-17 21:16N 05°09' W 016°08'312.6
2018-Apr-17 21:00N 05°06' W 016°07'1810.5
2018-Apr-17 19:18N 04°54' W 015°53'  

Dump ship's entire track history